createdAt,value
2023-03-11T00:02:19.436Z,99.90
2023-03-11T00:04:46.104Z,99.90
2023-03-11T00:07:13.786Z,99.90
2023-03-11T00:09:40.456Z,99.90
2023-03-11T00:12:07.610Z,99.90
2023-03-11T00:14:34.218Z,99.90
2023-03-11T00:17:00.901Z,99.90
2023-03-11T00:19:27.489Z,99.90
2023-03-11T00:21:54.178Z,99.90
2023-03-11T00:24:21.043Z,99.90
2023-03-11T00:26:47.692Z,99.90
2023-03-11T00:29:14.321Z,99.90
2023-03-11T05:31:50.267Z,99.90
2023-03-11T05:34:17.918Z,99.90
2023-03-11T05:36:44.713Z,99.90
2023-03-11T05:39:11.797Z,99.90
2023-03-11T05:41:38.443Z,99.90
2023-03-11T05:44:05.210Z,99.90
2023-03-11T05:46:32.263Z,99.90
2023-03-11T05:49:02.190Z,99.90
2023-03-11T05:51:29.408Z,99.90
2023-03-11T05:53:56.377Z,99.90
2023-03-11T05:56:23.406Z,99.90
2023-03-11T05:58:50.440Z,99.90
2023-03-11T06:01:18.727Z,99.90
2023-03-11T06:03:45.476Z,99.90
2023-03-11T06:06:13.143Z,99.90
2023-03-11T06:08:39.775Z,99.90
2023-03-11T06:11:10.706Z,99.90
2023-03-11T06:13:37.882Z,99.90
2023-03-11T06:16:05.376Z,99.90
2023-03-11T06:18:32.135Z,99.90
2023-03-11T06:21:00.031Z,99.90
2023-03-11T06:23:27.580Z,99.90
2023-03-11T06:26:00.983Z,99.90
2023-03-11T06:28:28.451Z,99.90
2023-03-11T06:30:56.744Z,99.90
2023-03-11T06:33:24.815Z,99.90
2023-03-11T06:36:01.850Z,99.90
2023-03-11T06:38:28.772Z,99.90
2023-03-11T06:41:00.229Z,99.90
2023-03-11T06:43:27.736Z,99.90
2023-03-11T06:45:54.415Z,99.90
2023-03-11T06:48:21.083Z,99.90
2023-03-11T06:50:59.042Z,99.90
2023-03-11T06:53:27.194Z,99.90
2023-03-11T06:56:04.268Z,99.90
2023-03-11T06:58:32.457Z,99.90
2023-03-11T07:01:13.917Z,99.90
2023-03-11T07:03:41.332Z,99.90
2023-03-11T07:06:15.863Z,99.90
2023-03-11T07:08:42.684Z,99.90
2023-03-11T07:11:26.960Z,99.90
2023-03-11T07:13:54.515Z,99.90
2023-03-11T07:16:23.788Z,99.90
2023-03-11T07:18:52.007Z,99.90
2023-03-11T07:21:21.303Z,99.90
2023-03-11T07:23:51.578Z,99.90
2023-03-11T07:26:18.733Z,99.90
2023-03-11T07:28:45.703Z,99.90
2023-03-11T07:31:18.618Z,99.90
2023-03-11T07:33:45.530Z,99.90
2023-03-11T07:36:14.641Z,99.90
2023-03-11T07:38:41.935Z,99.90
2023-03-11T07:41:11.105Z,99.90
2023-03-11T07:43:37.916Z,99.90
2023-03-11T07:46:05.623Z,99.90
2023-03-11T07:48:32.776Z,99.90
2023-03-11T07:51:17.505Z,99.90
2023-03-11T07:53:44.385Z,99.90
2023-03-11T07:56:12.924Z,99.90
2023-03-11T07:58:39.834Z,99.90
2023-03-11T08:01:09.241Z,99.90
2023-03-11T08:03:36.576Z,99.90
2023-03-11T08:06:04.222Z,99.90
2023-03-11T08:08:30.796Z,99.90
2023-03-11T08:10:57.410Z,99.90
2023-03-11T08:13:24.028Z,99.90
2023-03-11T08:15:50.836Z,99.90
2023-03-11T08:18:17.480Z,99.90
2023-03-11T08:20:45.429Z,99.90
2023-03-11T08:23:12.432Z,99.90
2023-03-11T08:25:40.638Z,99.90
2023-03-11T08:28:09.036Z,99.90
2023-03-11T08:30:35.846Z,99.70
2023-03-11T08:33:02.471Z,99.00
2023-03-11T08:35:29.191Z,97.10
2023-03-11T08:37:55.945Z,95.60
2023-03-11T08:40:23.311Z,94.20
2023-03-11T08:42:50.082Z,94.50
2023-03-11T08:45:16.804Z,93.70
2023-03-11T08:47:43.544Z,91.10
2023-03-11T08:50:16.816Z,88.50
2023-03-11T08:52:43.581Z,80.30
2023-03-11T08:55:13.538Z,73.80
2023-03-11T08:57:40.671Z,67.60
2023-03-11T09:00:10.232Z,66.80
2023-03-11T09:02:37.654Z,69.50
2023-03-11T09:05:04.529Z,69.20
2023-03-11T09:07:31.104Z,68.60
2023-03-11T09:09:57.806Z,69.60
2023-03-11T09:12:24.572Z,68.60
2023-03-11T09:14:51.237Z,66.30
2023-03-11T09:17:17.943Z,61.80
2023-03-11T09:19:44.562Z,57.50
2023-03-11T09:22:11.652Z,54.50
2023-03-11T09:24:38.295Z,49.10
2023-03-11T09:27:05.061Z,43.40
2023-03-11T09:29:32.015Z,38.30
2023-03-11T09:31:59.264Z,36.90
2023-03-11T09:34:26.052Z,33.10
2023-03-11T09:36:52.741Z,32.70
2023-03-11T09:39:19.410Z,31.10
2023-03-11T09:41:58.831Z,29.90
2023-03-11T09:44:28.535Z,29.20
2023-03-11T09:46:55.554Z,28.30
2023-03-11T09:49:43.148Z,28.40
2023-03-11T09:52:16.060Z,27.20
2023-03-11T09:54:48.028Z,26.30
2023-03-11T09:57:36.890Z,26.00
2023-03-11T10:00:06.209Z,25.90
2023-03-11T10:02:36.315Z,26.40
2023-03-11T10:05:26.726Z,25.00
2023-03-11T10:08:04.813Z,23.70
2023-03-11T10:10:43.055Z,25.30
2023-03-11T10:13:36.708Z,26.00
2023-03-11T10:16:26.833Z,26.80
2023-03-11T10:19:24.444Z,26.20
2023-03-11T10:22:29.824Z,25.30
2023-03-11T10:25:16.252Z,23.90
2023-03-11T10:28:02.461Z,23.40
2023-03-11T10:30:36.656Z,24.10
2023-03-11T10:33:13.041Z,23.90
2023-03-11T10:35:42.647Z,24.00
2023-03-11T10:38:18.211Z,23.30
2023-03-11T10:40:47.473Z,23.20
2023-03-11T10:43:26.449Z,23.90
2023-03-11T10:45:54.022Z,23.00
2023-03-11T10:48:21.765Z,24.60
2023-03-11T10:50:55.454Z,24.50
2023-03-11T10:53:22.216Z,26.30
2023-03-11T10:55:54.185Z,26.60
2023-03-11T10:58:23.768Z,28.40
2023-03-11T11:01:17.394Z,29.50
2023-03-11T11:03:57.946Z,30.30
2023-03-11T11:06:33.796Z,30.60
2023-03-11T11:09:09.079Z,31.00
2023-03-11T11:11:36.411Z,30.90
2023-03-11T11:14:03.104Z,29.80
2023-03-11T11:16:30.357Z,29.70
2023-03-11T11:19:13.756Z,30.50
2023-03-11T11:21:48.960Z,32.30
2023-03-11T11:24:25.422Z,34.10
2023-03-11T11:27:19.600Z,35.20
2023-03-11T11:29:47.599Z,34.40
2023-03-11T11:32:27.414Z,33.00
2023-03-11T11:35:02.743Z,31.40
2023-03-11T11:37:32.777Z,31.80
2023-03-11T11:40:14.792Z,32.80
2023-03-11T11:43:05.740Z,35.70
2023-03-11T11:45:42.865Z,36.10
2023-03-11T11:48:16.305Z,35.90
2023-03-11T11:50:46.466Z,38.40
2023-03-11T11:53:28.375Z,39.40
2023-03-11T11:55:55.319Z,38.10
2023-03-11T11:58:22.651Z,39.30
2023-03-11T12:00:55.522Z,37.60
2023-03-11T12:03:31.364Z,38.80
2023-03-11T12:06:00.574Z,40.50
2023-03-11T12:08:32.088Z,39.00
2023-03-11T12:11:08.828Z,39.00
2023-03-11T12:14:00.525Z,38.90
2023-03-11T12:16:43.829Z,41.70
2023-03-11T12:19:10.655Z,41.50
2023-03-11T12:21:55.212Z,40.20
2023-03-11T12:24:27.779Z,41.60
2023-03-11T12:27:04.242Z,42.50
2023-03-11T12:29:39.683Z,45.30
2023-03-11T12:32:07.186Z,45.20
2023-03-11T12:34:35.880Z,44.80
2023-03-11T12:37:12.596Z,44.00
2023-03-11T12:39:39.275Z,46.90
2023-03-11T12:42:22.108Z,46.70
2023-03-11T12:44:49.742Z,48.50
2023-03-11T12:47:28.767Z,50.00
2023-03-11T12:50:16.124Z,50.30
2023-03-11T12:52:54.550Z,52.00
2023-03-11T12:55:31.817Z,51.20
2023-03-11T12:58:16.514Z,51.10
2023-03-11T13:01:10.022Z,51.10
2023-03-11T13:03:48.289Z,51.90
2023-03-11T13:06:35.269Z,52.20
2023-03-11T13:09:02.172Z,52.90
2023-03-11T13:11:38.744Z,51.70
2023-03-11T13:14:14.922Z,52.40
2023-03-11T13:16:42.354Z,52.70
2023-03-11T13:19:27.825Z,52.90
2023-03-11T13:22:00.013Z,54.10
2023-03-11T13:24:26.929Z,54.60
2023-03-11T13:27:04.905Z,55.50
2023-03-11T13:30:16.281Z,55.70
2023-03-11T13:33:20.745Z,56.90
2023-03-11T13:36:09.394Z,57.10
2023-03-11T13:38:57.976Z,57.00
2023-03-11T13:41:34.784Z,56.10
2023-03-11T13:44:16.732Z,53.50
2023-03-11T13:46:49.678Z,54.60
2023-03-11T13:49:28.926Z,54.30
2023-03-11T13:51:57.365Z,53.90
2023-03-11T13:54:45.530Z,57.00
2023-03-11T13:57:32.664Z,54.20
2023-03-11T14:00:17.570Z,53.80
2023-03-11T14:02:48.436Z,52.40
2023-03-11T14:05:20.871Z,54.50
2023-03-11T14:07:47.662Z,54.10
2023-03-11T14:10:29.649Z,56.30
2023-03-11T14:13:15.384Z,55.50
2023-03-11T14:15:51.642Z,57.50
2023-03-11T14:18:41.656Z,58.20
2023-03-11T14:21:16.059Z,62.00
2023-03-11T14:23:52.163Z,61.40
2023-03-11T14:26:30.887Z,59.10
2023-03-11T14:29:00.346Z,61.50
2023-03-11T14:31:36.502Z,61.20
2023-03-11T14:34:15.995Z,62.80
2023-03-11T14:36:43.359Z,65.60
2023-03-11T14:39:26.690Z,63.70
2023-03-11T14:42:26.793Z,66.70
2023-03-11T14:45:08.197Z,71.10
2023-03-11T14:47:48.460Z,73.10
2023-03-11T14:50:24.405Z,75.60
2023-03-11T14:53:12.356Z,77.90
2023-03-11T14:55:41.352Z,78.90
2023-03-11T14:58:35.773Z,79.20
2023-03-11T15:01:21.041Z,79.50
2023-03-11T15:03:52.775Z,78.90
2023-03-11T15:06:23.453Z,80.90
2023-03-11T15:08:52.545Z,79.80
2023-03-11T15:11:25.352Z,80.00
2023-03-11T15:13:53.304Z,78.50
2023-03-11T15:16:30.310Z,78.50
2023-03-11T15:18:59.235Z,77.90
2023-03-11T15:21:26.042Z,78.80
2023-03-11T15:24:06.498Z,81.00
2023-03-11T15:26:35.774Z,80.10
2023-03-11T15:29:12.727Z,83.30
2023-03-11T15:31:40.473Z,85.50
2023-03-11T15:34:11.653Z,86.80
2023-03-11T15:36:43.947Z,89.80
2023-03-11T15:39:18.230Z,91.10
2023-03-11T15:41:47.640Z,93.20
2023-03-11T15:44:32.638Z,95.10
2023-03-11T15:47:00.421Z,96.60
2023-03-11T15:49:28.641Z,98.20
2023-03-11T15:52:02.562Z,97.70
2023-03-11T15:54:29.293Z,99.90
2023-03-11T15:56:58.550Z,99.90
2023-03-11T15:59:26.212Z,99.90
2023-03-11T16:01:52.911Z,99.90
2023-03-11T16:04:21.047Z,99.90
2023-03-11T16:06:59.519Z,99.90
2023-03-11T16:09:34.220Z,99.90
2023-03-11T16:12:02.175Z,99.90
2023-03-11T16:14:28.951Z,99.90
2023-03-11T16:16:55.665Z,99.90
2023-03-11T16:19:22.307Z,99.90
2023-03-11T16:21:50.334Z,99.90
2023-03-11T16:24:21.013Z,99.90
2023-03-11T16:26:47.978Z,99.90
2023-03-11T16:29:19.316Z,99.90
2023-03-11T16:31:46.901Z,99.90
2023-03-11T16:34:13.611Z,99.90
2023-03-11T16:36:40.468Z,99.90
2023-03-11T16:39:07.311Z,99.90
2023-03-11T16:41:42.427Z,99.90
2023-03-11T16:44:10.005Z,99.90
2023-03-11T16:46:37.029Z,99.90
2023-03-11T16:49:04.014Z,99.90
2023-03-11T16:51:31.283Z,99.90
2023-03-11T16:53:57.986Z,99.90
2023-03-11T16:56:24.874Z,99.90
2023-03-11T16:58:51.530Z,99.90
2023-03-11T17:01:19.218Z,99.90
2023-03-11T17:03:48.605Z,99.90
2023-03-11T17:06:16.996Z,99.90
2023-03-11T17:08:48.965Z,99.90
2023-03-11T17:11:17.877Z,99.90
2023-03-11T17:13:44.581Z,99.90
2023-03-11T17:16:11.398Z,99.90
2023-03-11T17:18:38.204Z,99.90
2023-03-11T17:21:10.745Z,99.90
2023-03-11T17:23:37.548Z,99.90
2023-03-11T17:26:09.641Z,99.90
2023-03-11T17:28:36.710Z,99.90
2023-03-11T17:31:03.547Z,99.90
2023-03-11T17:33:30.239Z,99.90
2023-03-11T17:36:02.194Z,99.90
2023-03-11T17:38:29.510Z,99.90
2023-03-11T17:40:56.461Z,99.90
2023-03-11T17:43:23.243Z,99.90
2023-03-11T17:45:50.477Z,99.90
2023-03-11T17:48:17.219Z,99.90
2023-03-11T17:50:43.903Z,99.90
2023-03-11T17:53:10.633Z,99.90
2023-03-11T17:55:40.400Z,99.90
2023-03-11T17:58:07.640Z,99.90
2023-03-11T18:00:34.528Z,99.90
2023-03-11T18:03:01.171Z,99.90
2023-03-11T18:05:27.757Z,99.90
2023-03-11T18:07:54.401Z,99.90
2023-03-11T18:10:21.565Z,99.90
2023-03-11T18:12:48.332Z,99.90
2023-03-11T18:15:19.120Z,99.90
2023-03-11T18:17:49.065Z,99.90
2023-03-11T18:20:17.186Z,99.90
2023-03-11T18:22:46.797Z,99.90
2023-03-11T18:25:13.901Z,99.90
2023-03-11T18:27:41.133Z,99.90
2023-03-11T18:30:08.628Z,99.90
2023-03-11T18:32:35.318Z,99.90
2023-03-11T18:35:02.093Z,99.90
2023-03-11T18:37:28.688Z,99.90
2023-03-11T18:39:55.368Z,99.90
2023-03-11T18:42:22.048Z,99.90
2023-03-11T18:44:48.672Z,99.90
2023-03-11T18:47:15.301Z,99.90
2023-03-11T18:49:42.036Z,99.90
2023-03-11T18:52:09.081Z,99.90
2023-03-11T18:54:35.894Z,99.90
2023-03-11T18:57:02.535Z,99.90
2023-03-11T18:59:29.125Z,99.90
2023-03-11T19:01:55.738Z,99.90
2023-03-11T19:04:22.429Z,99.90
2023-03-11T19:06:50.132Z,99.90
2023-03-11T19:09:20.779Z,99.90
2023-03-11T19:11:47.403Z,99.90
2023-03-11T19:14:14.040Z,99.90
2023-03-11T19:16:40.691Z,99.90
2023-03-11T19:19:07.401Z,99.90
2023-03-11T19:21:34.012Z,99.90
2023-03-11T19:24:00.703Z,99.90
2023-03-11T19:26:43.237Z,99.90
2023-03-11T19:29:10.891Z,99.90
2023-03-11T19:31:37.511Z,99.90
2023-03-11T19:34:04.250Z,99.90
2023-03-11T19:36:30.912Z,99.90
2023-03-11T19:38:57.626Z,99.90
2023-03-11T19:41:24.324Z,99.90
2023-03-11T19:43:51.761Z,99.90
2023-03-11T19:46:20.999Z,99.90
2023-03-11T19:48:47.679Z,99.90
2023-03-11T19:51:14.967Z,99.90
2023-03-11T19:53:41.713Z,99.90
2023-03-11T19:56:09.348Z,99.90
2023-03-11T19:58:36.316Z,99.90
2023-03-11T20:01:03.447Z,99.90
2023-03-11T20:03:30.130Z,99.90
2023-03-11T20:06:02.430Z,99.90
2023-03-11T20:08:30.338Z,99.90
2023-03-11T20:11:00.918Z,99.90
2023-03-11T20:13:27.598Z,99.90
2023-03-11T20:15:54.241Z,99.90
2023-03-11T20:18:21.011Z,99.90
2023-03-11T20:20:47.674Z,99.90
2023-03-11T20:23:14.803Z,99.90
2023-03-11T20:25:42.313Z,99.90
2023-03-11T20:28:09.516Z,99.90
2023-03-11T20:30:38.298Z,99.90
2023-03-11T20:33:05.383Z,99.90
2023-03-11T20:35:32.659Z,99.90
2023-03-11T20:37:59.571Z,99.90
2023-03-11T20:40:26.438Z,99.90
2023-03-11T20:42:53.121Z,99.90
2023-03-11T20:45:21.900Z,99.90
2023-03-11T20:47:49.983Z,99.90
2023-03-11T20:50:17.274Z,99.90
2023-03-11T20:52:44.061Z,99.90
2023-03-11T20:55:11.531Z,99.90
2023-03-11T20:57:39.539Z,99.90
2023-03-11T21:00:11.492Z,99.90
2023-03-11T21:02:42.589Z,99.90
2023-03-11T21:05:10.691Z,99.90
2023-03-11T21:07:37.666Z,99.90
2023-03-11T21:10:06.897Z,99.90
2023-03-11T21:12:33.619Z,99.90
2023-03-11T21:15:00.617Z,99.90
2023-03-11T21:17:27.431Z,99.90
2023-03-11T21:19:54.183Z,99.90
2023-03-11T21:22:21.044Z,99.90
2023-03-11T21:24:54.953Z,99.90
2023-03-11T21:27:26.149Z,99.90
2023-03-11T21:29:54.313Z,99.90
2023-03-11T21:32:21.946Z,99.90
2023-03-11T21:34:48.851Z,99.90
2023-03-11T21:37:16.254Z,99.90
2023-03-11T21:39:42.981Z,99.90
2023-03-11T21:42:09.763Z,99.90
2023-03-11T21:44:36.442Z,99.90
2023-03-11T21:47:03.582Z,99.90
2023-03-11T21:49:31.353Z,99.90
2023-03-11T21:51:59.664Z,99.90
2023-03-11T21:54:27.765Z,99.90
2023-03-11T21:56:54.472Z,99.90
2023-03-11T21:59:23.555Z,99.90
2023-03-11T22:01:51.777Z,99.90
2023-03-11T22:04:18.469Z,99.90
2023-03-11T22:06:45.225Z,99.90
2023-03-11T22:09:13.965Z,99.90
2023-03-11T22:11:40.600Z,99.90
2023-03-11T22:14:07.444Z,99.90
2023-03-11T22:16:34.245Z,99.90
2023-03-11T22:19:01.359Z,99.90
2023-03-11T22:21:28.278Z,99.90
2023-03-11T22:23:54.948Z,99.90
2023-03-11T22:26:21.613Z,99.90
2023-03-11T22:28:48.264Z,99.90
2023-03-11T22:31:15.673Z,99.90
2023-03-11T22:33:42.436Z,99.90
2023-03-11T22:36:09.931Z,99.90
2023-03-11T22:38:38.468Z,99.90
2023-03-11T22:41:07.637Z,99.90
2023-03-11T22:43:35.513Z,99.90
2023-03-11T22:46:02.709Z,99.90
2023-03-11T22:48:29.509Z,99.90
2023-03-11T22:50:56.654Z,99.90
2023-03-11T22:53:24.875Z,99.90
2023-03-11T22:55:52.762Z,99.90
2023-03-11T22:58:20.008Z,99.90
2023-03-11T23:00:47.009Z,99.90
2023-03-11T23:03:13.945Z,99.90
2023-03-11T23:05:42.222Z,99.90
2023-03-11T23:08:11.868Z,99.90
2023-03-11T23:10:44.128Z,99.90
2023-03-11T23:13:11.639Z,99.90
2023-03-11T23:15:41.258Z,99.90
2023-03-11T23:18:08.331Z,99.90
2023-03-11T23:20:37.655Z,99.90
2023-03-11T23:23:05.738Z,99.90
2023-03-11T23:25:34.032Z,99.90
2023-03-11T23:28:02.971Z,99.90
2023-03-11T23:30:30.106Z,99.90
2023-03-11T23:32:57.360Z,99.90
2023-03-11T23:35:24.192Z,99.90
2023-03-11T23:37:51.577Z,99.90
2023-03-11T23:40:18.479Z,99.90
2023-03-11T23:42:45.153Z,99.90
2023-03-11T23:45:12.069Z,99.90
2023-03-11T23:47:38.720Z,99.90
2023-03-11T23:50:05.918Z,99.90
2023-03-11T23:52:32.985Z,99.90
2023-03-11T23:54:59.707Z,99.90
2023-03-11T23:57:26.457Z,99.90
2023-03-11T23:59:53.113Z,99.90
